Kyokuhoumaru No.12 — JL5963 — position and weather

sailwx.info

Track history (hours):
 
Tides and Currents Weather Stations Pressure Air Temp Water Temp Dewpoint Dewpoint Depression Visibility Wind Speed Wind Dir Waves Ship Positions

Kyokuhoumaru No.12

Last reported at 2015-Sep-02 16:31 UTC. Time now 2015-Sep-03 02:36 UTC.
Position N 34°35' E 135°06'.

Length 57 m.

Type: Tanker. MMSI: 431500879.

Date/timePositionNaut miles runAvg speedWind from/ knotsBaromVisibWave heightAir tempDewpointWater temp
2015-Sep-02 16:31N 34°35' E 135°06'228 6.6
2015-Sep-01 06:15N 35°06' E 139°40'710.3
2015-Sep-01 05:33N 35°12' E 139°46'9 8.9
2015-Sep-01 04:32N 35°21' E 139°42'9 8.8
2015-Sep-01 03:33N 35°28' E 139°48'4 3.7
2015-Sep-01 02:33N 35°31' E 139°51'9 8.5
2015-Sep-01 01:33N 35°37' E 139°58'4 3.7
2015-Sep-01 00:29N 35°41' E 139°57'0 0.0
2015-Aug-31 23:32N 35°41' E 139°57'4 4.3
2015-Aug-31 22:33N 35°37' E 139°56'2 1.9
2015-Aug-31 21:31N 35°36' E 139°54'0 0.0
2015-Aug-31 20:31N 35°36' E 139°54'0 0.0
2015-Aug-31 19:28N 35°36' E 139°54'0 0.0
2015-Aug-31 18:31N 35°36' E 139°54'7 7.1
2015-Aug-31 17:33N 35°29' E 139°52'1110.1
2015-Aug-31 16:27N 35°20' E 139°45'8 9.1
2015-Aug-31 15:32N 35°12' E 139°47'9 9.1
2015-Aug-31 14:33N 35°04' E 139°44'  
Track history (hours):
 
Tides and Currents Weather Stations Pressure Air Temp Water Temp Dewpoint Dewpoint Depression Visibility Wind Speed Wind Dir Waves Ship Positions

Kyokuhoumaru No.12

Last reported at 2015-Sep-02 16:31 UTC. Time now 2015-Sep-03 02:36 UTC.
Position N 34°35' E 135°06'.

Length 57 m.

Type: Tanker. MMSI: 431500879.

Date/timePositionNaut miles runAvg speedWind from/ knotsBaromVisibWave heightAir tempDewpointWater temp
2015-Sep-02 16:31N 34°35' E 135°06'228 6.6
2015-Sep-01 06:15N 35°06' E 139°40'710.3
2015-Sep-01 05:33N 35°12' E 139°46'9 8.9
2015-Sep-01 04:32N 35°21' E 139°42'9 8.8
2015-Sep-01 03:33N 35°28' E 139°48'4 3.7
2015-Sep-01 02:33N 35°31' E 139°51'9 8.5
2015-Sep-01 01:33N 35°37' E 139°58'4 3.7
2015-Sep-01 00:29N 35°41' E 139°57'0 0.0
2015-Aug-31 23:32N 35°41' E 139°57'4 4.3
2015-Aug-31 22:33N 35°37' E 139°56'2 1.9
2015-Aug-31 21:31N 35°36' E 139°54'0 0.0
2015-Aug-31 20:31N 35°36' E 139°54'0 0.0
2015-Aug-31 19:28N 35°36' E 139°54'0 0.0
2015-Aug-31 18:31N 35°36' E 139°54'7 7.1
2015-Aug-31 17:33N 35°29' E 139°52'1110.1
2015-Aug-31 16:27N 35°20' E 139°45'8 9.1
2015-Aug-31 15:32N 35°12' E 139°47'9 9.1
2015-Aug-31 14:33N 35°04' E 139°44'  

Dump ship's entire track history